createdAt,value
2022-09-22T00:01:25.677Z,1.50
2022-09-22T00:03:56.459Z,1.30
2022-09-22T00:06:26.164Z,1.70
2022-09-22T00:08:56.147Z,1.67
2022-09-22T00:11:28.470Z,1.80
2022-09-22T00:14:00.014Z,1.80
2022-09-22T00:16:31.899Z,1.60
2022-09-22T00:18:59.830Z,1.70
2022-09-22T00:21:27.781Z,1.57
2022-09-22T00:23:56.061Z,1.50
2022-09-22T00:26:25.616Z,1.90
2022-09-22T00:28:53.697Z,1.50
2022-09-22T00:31:24.723Z,1.40
2022-09-22T00:33:53.559Z,1.60
2022-09-22T00:36:23.152Z,5.90
2022-09-22T00:38:51.545Z,2.10
2022-09-22T00:41:22.007Z,1.80
2022-09-22T00:43:51.923Z,2.10
2022-09-22T00:46:24.006Z,2.00
2022-09-22T00:49:01.683Z,1.80
2022-09-22T00:51:34.367Z,1.93
2022-09-22T00:54:05.508Z,2.03
2022-09-22T00:56:38.407Z,1.67
2022-09-22T00:59:12.354Z,1.53
2022-09-22T01:01:41.629Z,1.83
2022-09-22T01:04:09.898Z,1.67
2022-09-22T01:06:40.622Z,1.80
2022-09-22T01:09:09.631Z,1.63
2022-09-22T01:11:39.030Z,1.50
2022-09-22T01:14:17.578Z,1.57
2022-09-22T01:16:57.272Z,1.30
2022-09-22T01:19:56.832Z,1.60
2022-09-22T01:22:43.287Z,1.70
2022-09-22T01:25:32.121Z,1.37
2022-09-22T01:28:23.322Z,1.53
2022-09-22T01:30:58.619Z,1.57
2022-09-22T01:33:34.922Z,1.67
2022-09-22T01:36:21.548Z,2.00
2022-09-22T01:38:57.815Z,1.73
2022-09-22T01:41:42.844Z,1.33
2022-09-22T01:44:16.411Z,1.37
2022-09-22T01:46:53.159Z,1.27
2022-09-22T01:49:23.573Z,1.63
2022-09-22T01:51:56.206Z,1.60
2022-09-22T01:54:29.570Z,1.30
2022-09-22T01:57:02.644Z,1.30
2022-09-22T01:59:32.720Z,1.40
2022-09-22T02:02:05.932Z,1.70
2022-09-22T02:04:39.235Z,1.63
2022-09-22T02:07:10.489Z,1.47
2022-09-22T02:09:41.964Z,1.40
2022-09-22T02:12:09.763Z,1.63
2022-09-22T02:14:37.629Z,1.60
2022-09-22T02:17:06.791Z,1.40
2022-09-22T02:19:38.367Z,1.50
2022-09-22T02:22:06.962Z,1.53
2022-09-22T02:24:36.967Z,1.40
2022-09-22T02:27:07.977Z,1.40
2022-09-22T02:29:39.500Z,1.67
2022-09-22T02:32:11.367Z,1.60
2022-09-22T02:34:39.488Z,1.50
2022-09-22T02:37:16.717Z,1.83
2022-09-22T02:39:52.974Z,1.70
2022-09-22T02:42:28.375Z,1.90
2022-09-22T02:45:01.601Z,1.70
2022-09-22T02:47:36.409Z,1.57
2022-09-22T02:50:09.056Z,1.50
2022-09-22T02:52:37.691Z,1.40
2022-09-22T02:55:06.750Z,1.57
2022-09-22T02:57:34.583Z,1.50
2022-09-22T03:00:02.866Z,1.80
2022-09-22T03:02:31.991Z,1.70
2022-09-22T03:04:59.792Z,1.67
2022-09-22T03:07:27.611Z,1.63
2022-09-22T03:09:55.397Z,1.53
2022-09-22T03:12:23.333Z,1.50
2022-09-22T03:14:51.152Z,1.63
2022-09-22T03:17:18.935Z,1.57
2022-09-22T03:19:48.080Z,1.57
2022-09-22T03:22:15.951Z,1.57
2022-09-22T03:24:43.713Z,1.80
2022-09-22T03:27:11.470Z,1.50
2022-09-22T03:29:39.515Z,1.50
2022-09-22T03:32:07.420Z,1.53
2022-09-22T03:34:35.177Z,2.03
2022-09-22T03:37:04.395Z,1.40
2022-09-22T03:39:32.171Z,1.50
2022-09-22T03:41:59.964Z,2.03
2022-09-22T03:44:27.753Z,1.60
2022-09-22T03:46:55.535Z,2.07
2022-09-22T03:49:23.392Z,1.43
2022-09-22T03:51:51.188Z,1.90
2022-09-22T03:54:20.754Z,1.97
2022-09-22T03:56:48.908Z,2.30
2022-09-22T03:59:17.113Z,2.03
2022-09-22T04:01:45.307Z,1.90
2022-09-22T04:04:13.112Z,2.30
2022-09-22T04:06:42.037Z,2.07
2022-09-22T04:09:10.054Z,2.07
2022-09-22T04:11:39.263Z,2.30
2022-09-22T04:14:07.073Z,1.70
2022-09-22T04:16:34.886Z,2.60
2022-09-22T04:19:04.955Z,2.40
2022-09-22T04:21:33.166Z,1.80
2022-09-22T04:24:01.218Z,2.20
2022-09-22T04:26:29.019Z,2.27
2022-09-22T04:28:58.116Z,2.03
2022-09-22T04:31:25.872Z,2.00
2022-09-22T04:33:53.735Z,2.07
2022-09-22T04:36:21.490Z,1.80
2022-09-22T04:38:49.305Z,1.70
2022-09-22T04:41:17.072Z,2.10
2022-09-22T04:43:45.213Z,2.00
2022-09-22T04:46:14.347Z,1.73
2022-09-22T04:48:42.159Z,1.70
2022-09-22T04:51:09.895Z,2.10
2022-09-22T04:53:37.665Z,1.97
2022-09-22T04:56:05.661Z,2.20
2022-09-22T04:58:33.564Z,2.03
2022-09-22T05:01:05.097Z,2.20
2022-09-22T05:03:38.022Z,2.00
2022-09-22T05:06:06.461Z,1.93
2022-09-22T05:08:34.545Z,1.97
2022-09-22T05:11:06.562Z,2.00
2022-09-22T05:13:35.303Z,2.30
2022-09-22T05:16:05.263Z,2.33
2022-09-22T05:18:34.501Z,2.60
2022-09-22T05:21:02.642Z,3.03
2022-09-22T05:23:32.133Z,2.07
2022-09-22T05:26:00.970Z,2.20
2022-09-22T05:28:29.450Z,2.10
2022-09-22T05:30:57.167Z,2.43
2022-09-22T05:33:24.971Z,3.00
2022-09-22T05:35:54.082Z,2.47
2022-09-22T05:38:22.051Z,3.07
2022-09-22T05:40:49.884Z,3.10
2022-09-22T05:43:17.863Z,2.90
2022-09-22T05:45:45.691Z,2.70
2022-09-22T05:48:13.481Z,2.63
2022-09-22T05:50:41.217Z,2.30
2022-09-22T05:53:11.353Z,2.60
2022-09-22T05:55:40.055Z,2.67
2022-09-22T05:58:09.290Z,2.77
2022-09-22T06:00:37.057Z,2.87
2022-09-22T06:03:05.199Z,2.70
2022-09-22T06:05:35.293Z,2.77
2022-09-22T06:08:06.527Z,3.20
2022-09-22T06:10:37.803Z,2.60
2022-09-22T06:13:07.343Z,2.70
2022-09-22T06:15:36.208Z,3.00
2022-09-22T06:18:06.973Z,3.40
2022-09-22T06:20:35.373Z,3.00
2022-09-22T06:23:03.154Z,3.00
2022-09-22T06:25:31.091Z,2.50
2022-09-22T06:28:05.615Z,5.80
2022-09-22T06:30:33.948Z,4.50
2022-09-22T06:33:02.055Z,3.67
2022-09-22T06:35:37.509Z,3.30
2022-09-22T06:38:07.406Z,2.70
2022-09-22T06:40:36.474Z,3.13
2022-09-22T06:43:10.515Z,3.20
2022-09-22T06:45:38.450Z,3.73
2022-09-22T06:48:10.160Z,3.40
2022-09-22T06:50:40.794Z,3.50
2022-09-22T06:53:11.281Z,3.50
2022-09-22T06:55:41.466Z,3.50
2022-09-22T06:58:11.533Z,4.33
2022-09-22T07:00:41.838Z,4.50
2022-09-22T07:03:15.942Z,3.87
2022-09-22T07:05:53.654Z,4.17
2022-09-22T07:08:22.091Z,4.10
2022-09-22T07:10:56.906Z,3.73
2022-09-22T07:13:29.612Z,3.67
2022-09-22T07:16:01.295Z,4.40
2022-09-22T07:18:29.411Z,3.97
2022-09-22T07:21:02.967Z,3.40
2022-09-22T07:23:30.763Z,3.27
2022-09-22T07:26:00.849Z,3.80
2022-09-22T07:28:31.522Z,3.60
2022-09-22T07:31:05.889Z,3.70
2022-09-22T07:33:33.797Z,3.60
2022-09-22T07:36:08.727Z,3.30
2022-09-22T07:38:37.211Z,2.80
2022-09-22T07:41:06.924Z,3.53
2022-09-22T07:43:36.918Z,3.33
2022-09-22T07:46:04.714Z,3.70
2022-09-22T07:48:42.868Z,2.97
2022-09-22T07:51:16.467Z,2.90
2022-09-22T07:53:45.743Z,3.90
2022-09-22T07:56:15.202Z,3.87
2022-09-22T07:58:49.911Z,3.50
2022-09-22T08:01:18.507Z,3.57
2022-09-22T08:03:47.224Z,3.90
2022-09-22T08:06:18.467Z,3.83
2022-09-22T08:08:48.273Z,3.90
2022-09-22T08:11:17.949Z,3.47
2022-09-22T08:13:53.305Z,3.37
2022-09-22T08:16:22.518Z,3.67
2022-09-22T08:18:52.293Z,3.10
2022-09-22T08:21:20.042Z,3.20
2022-09-22T08:23:52.776Z,3.47
2022-09-22T08:26:21.996Z,2.80
2022-09-22T08:28:54.027Z,3.50
2022-09-22T08:31:23.218Z,3.40
2022-09-22T08:33:52.901Z,3.37
2022-09-22T08:36:21.545Z,3.20
2022-09-22T08:38:49.727Z,3.30
2022-09-22T08:41:25.487Z,3.10
2022-09-22T08:43:56.550Z,3.20
2022-09-22T08:46:28.690Z,3.27
2022-09-22T08:49:20.337Z,3.03
2022-09-22T08:51:53.023Z,2.40
2022-09-22T08:54:23.118Z,2.60
2022-09-22T08:57:03.544Z,2.77
2022-09-22T08:59:37.181Z,2.80
2022-09-22T09:02:32.495Z,2.77
2022-09-22T09:05:48.239Z,2.77
2022-09-22T09:08:39.220Z,2.90
2022-09-22T09:11:20.571Z,2.80
2022-09-22T09:14:08.033Z,2.90
2022-09-22T09:16:45.553Z,3.37
2022-09-22T09:19:18.624Z,2.87
2022-09-22T09:21:51.526Z,3.50
2022-09-22T09:27:22.113Z,3.20
2022-09-22T09:29:58.947Z,3.20
2022-09-22T09:32:34.610Z,3.23
2022-09-22T09:37:36.518Z,3.13
2022-09-22T09:40:05.911Z,3.23
2022-09-22T09:42:36.196Z,3.30
2022-09-22T09:45:04.738Z,3.30
2022-09-22T09:47:59.199Z,3.23
2022-09-22T09:50:32.098Z,3.20
2022-09-22T09:53:00.542Z,3.17
2022-09-22T09:55:28.492Z,3.40
2022-09-22T09:58:04.846Z,2.97
2022-09-22T10:00:33.065Z,2.93
2022-09-22T10:03:21.768Z,3.10
2022-09-22T10:06:00.551Z,2.97
2022-09-22T10:08:32.083Z,3.17
2022-09-22T10:11:01.867Z,3.30
2022-09-22T10:13:32.179Z,3.23
2022-09-22T10:16:21.931Z,3.40
2022-09-22T10:18:52.877Z,2.83
2022-09-22T10:21:22.241Z,3.30
2022-09-22T10:23:51.057Z,3.13
2022-09-22T10:26:21.972Z,3.40
2022-09-22T10:29:16.032Z,2.83
2022-09-22T10:32:02.493Z,2.97
2022-09-22T10:34:34.317Z,3.40
2022-09-22T10:37:04.512Z,2.70
2022-09-22T10:39:44.032Z,2.70
2022-09-22T10:42:23.199Z,3.00
2022-09-22T10:44:52.804Z,3.10
2022-09-22T10:47:39.560Z,2.97
2022-09-22T10:50:35.629Z,2.80
2022-09-22T10:53:13.613Z,2.63
2022-09-22T10:55:54.080Z,2.70
2022-09-22T10:58:28.137Z,2.70
2022-09-22T11:01:11.578Z,2.60
2022-09-22T11:04:15.234Z,2.57
2022-09-22T11:07:14.463Z,3.00
2022-09-22T11:10:04.920Z,2.63
2022-09-22T11:12:44.549Z,2.80
2022-09-22T11:15:22.969Z,3.13
2022-09-22T11:18:08.068Z,3.17
2022-09-22T11:20:39.607Z,2.90
2022-09-22T11:23:33.396Z,2.60
2022-09-22T11:26:25.289Z,2.93
2022-09-22T11:29:06.646Z,3.43
2022-09-22T11:31:53.130Z,3.10
2022-09-22T11:34:45.131Z,3.13
2022-09-22T11:37:28.849Z,2.80
2022-09-22T11:40:17.745Z,2.70
2022-09-22T11:42:55.184Z,3.20
2022-09-22T11:45:41.856Z,3.40
2022-09-22T11:48:21.354Z,2.87
2022-09-22T11:51:12.778Z,3.23
2022-09-22T11:53:52.886Z,3.10
2022-09-22T11:56:34.067Z,3.13
2022-09-22T11:59:05.494Z,3.23
2022-09-22T12:01:40.132Z,3.80
2022-09-22T12:04:18.010Z,2.83
2022-09-22T12:06:50.427Z,2.97
2022-09-22T12:09:35.929Z,2.90
2022-09-22T12:12:11.610Z,2.97
2022-09-22T12:14:40.663Z,2.50
2022-09-22T12:17:13.935Z,2.17
2022-09-22T12:19:54.279Z,3.03
2022-09-22T12:22:28.839Z,2.60
2022-09-22T12:24:56.613Z,2.23
2022-09-22T12:27:28.250Z,2.10
2022-09-22T12:29:58.631Z,2.20
2022-09-22T12:32:32.488Z,2.77
2022-09-22T12:35:01.735Z,2.30
2022-09-22T12:37:31.780Z,2.40
2022-09-22T12:40:22.442Z,1.93
2022-09-22T12:42:54.180Z,2.47
2022-09-22T12:45:30.257Z,2.03
2022-09-22T12:47:59.903Z,2.03
2022-09-22T12:50:38.932Z,2.07
2022-09-22T12:53:13.022Z,1.80
2022-09-22T12:55:40.795Z,1.90
2022-09-22T12:58:53.459Z,1.90
2022-09-22T13:01:33.420Z,2.00
2022-09-22T13:04:22.138Z,2.07
2022-09-22T13:07:00.811Z,2.20
2022-09-22T13:09:31.789Z,2.00
2022-09-22T13:12:36.179Z,2.60
2022-09-22T13:15:24.970Z,2.17
2022-09-22T13:17:54.227Z,2.00
2022-09-22T13:20:25.104Z,1.97
2022-09-22T13:22:56.621Z,1.90
2022-09-22T13:25:27.041Z,1.80
2022-09-22T13:28:13.700Z,2.03
2022-09-22T13:30:43.271Z,2.00
2022-09-22T13:33:21.748Z,1.90
2022-09-22T13:35:56.951Z,2.07
2022-09-22T13:38:24.865Z,1.90
2022-09-22T13:40:53.259Z,1.83
2022-09-22T13:43:28.309Z,2.20
2022-09-22T13:45:58.205Z,2.10
2022-09-22T13:48:31.194Z,2.20
2022-09-22T13:51:03.564Z,2.00
2022-09-22T13:53:32.694Z,2.10
2022-09-22T13:56:01.053Z,1.73
2022-09-22T13:58:36.407Z,2.13
2022-09-22T14:01:13.875Z,2.47
2022-09-22T14:03:44.651Z,2.10
2022-09-22T14:06:14.982Z,1.90
2022-09-22T14:08:44.701Z,2.20
2022-09-22T14:11:15.603Z,2.17
2022-09-22T14:13:45.169Z,2.30
2022-09-22T14:16:23.932Z,1.70
2022-09-22T14:18:58.900Z,1.80
2022-09-22T14:21:26.836Z,2.33
2022-09-22T14:23:56.086Z,2.20
2022-09-22T14:26:33.519Z,2.60
2022-09-22T14:29:15.149Z,2.27
2022-09-22T14:31:46.384Z,2.00
2022-09-22T14:34:21.965Z,2.20
2022-09-22T14:36:51.889Z,2.30
2022-09-22T14:39:23.432Z,2.47
2022-09-22T14:41:58.977Z,1.87
2022-09-22T14:44:42.123Z,1.90
2022-09-22T14:47:19.798Z,2.30
2022-09-22T14:49:49.384Z,2.23
2022-09-22T14:52:26.853Z,2.43
2022-09-22T14:54:56.841Z,2.47
2022-09-22T14:57:26.082Z,1.90
2022-09-22T15:00:15.866Z,2.03
2022-09-22T15:02:49.506Z,2.27
2022-09-22T15:05:29.640Z,2.63
2022-09-22T15:07:59.329Z,2.30
2022-09-22T15:10:29.060Z,2.27
2022-09-22T15:13:18.337Z,2.17
2022-09-22T15:15:47.372Z,2.13
2022-09-22T15:18:16.079Z,2.00
2022-09-22T15:20:48.070Z,2.40
2022-09-22T15:23:18.953Z,2.00
2022-09-22T15:25:47.431Z,2.20
2022-09-22T15:28:17.063Z,2.17
2022-09-22T15:30:47.164Z,2.00
2022-09-22T15:33:16.202Z,2.43
2022-09-22T15:35:47.349Z,2.10
2022-09-22T15:38:19.170Z,2.00
2022-09-22T15:40:48.095Z,2.10
2022-09-22T15:43:23.370Z,2.13
2022-09-22T15:45:56.174Z,2.20
2022-09-22T15:48:28.322Z,2.23
2022-09-22T15:50:59.838Z,2.17
2022-09-22T15:53:30.254Z,2.10
2022-09-22T15:55:59.673Z,2.10
2022-09-22T15:58:33.604Z,2.30
2022-09-22T16:01:02.256Z,2.03
2022-09-22T16:03:31.344Z,1.90
2022-09-22T16:06:04.300Z,2.20
2022-09-22T16:08:42.010Z,2.50
2022-09-22T16:11:13.832Z,2.07
2022-09-22T16:13:42.001Z,1.87
2022-09-22T16:16:10.799Z,2.10
2022-09-22T16:18:41.692Z,2.90
2022-09-22T16:21:20.291Z,2.10
2022-09-22T16:23:48.070Z,2.23
2022-09-22T16:26:16.907Z,2.20
2022-09-22T16:28:44.676Z,2.60
2022-09-22T16:31:13.437Z,3.23
2022-09-22T16:33:41.243Z,2.77
2022-09-22T16:36:10.416Z,2.10
2022-09-22T16:38:39.402Z,2.03
2022-09-22T16:41:18.224Z,2.07
2022-09-22T16:43:45.988Z,2.53
2022-09-22T16:46:30.035Z,1.80
2022-09-22T16:49:00.414Z,2.47
2022-09-22T16:51:30.164Z,2.33
2022-09-22T16:53:58.440Z,2.40
2022-09-22T16:56:28.100Z,2.30
2022-09-22T16:58:56.302Z,2.30
2022-09-22T17:01:24.706Z,2.43
2022-09-22T17:03:53.748Z,2.30
2022-09-22T17:06:24.252Z,2.57
2022-09-22T17:08:54.976Z,2.23
2022-09-22T17:11:29.369Z,2.53
2022-09-22T17:13:59.792Z,2.67
2022-09-22T17:16:29.899Z,3.60
2022-09-22T17:19:00.165Z,3.87
2022-09-22T17:21:32.292Z,3.40
2022-09-22T17:24:04.810Z,3.10
2022-09-22T17:26:35.171Z,3.00
2022-09-22T17:29:03.201Z,3.30
2022-09-22T17:31:31.862Z,3.40
2022-09-22T17:33:59.978Z,5.00
2022-09-22T17:36:29.280Z,5.07
2022-09-22T17:38:58.508Z,4.40
2022-09-22T17:41:29.631Z,4.27
2022-09-22T17:43:57.671Z,5.00
2022-09-22T17:46:26.819Z,3.90
2022-09-22T17:49:12.806Z,3.00
2022-09-22T17:51:59.702Z,3.60
2022-09-22T17:54:47.260Z,3.20
2022-09-22T17:57:18.789Z,3.27
2022-09-22T17:59:47.245Z,3.20
2022-09-22T18:02:16.743Z,3.30
2022-09-22T18:04:45.304Z,3.43
2022-09-22T18:07:17.801Z,3.20
2022-09-22T18:09:47.287Z,2.60
2022-09-22T18:12:21.290Z,3.23
2022-09-22T18:14:52.028Z,2.87
2022-09-22T18:17:21.680Z,2.77
2022-09-22T18:19:49.478Z,2.67
2022-09-22T18:22:20.917Z,3.03
2022-09-22T18:24:50.369Z,2.70
2022-09-22T18:27:20.573Z,3.23
2022-09-22T18:29:49.992Z,2.97
2022-09-22T18:32:20.005Z,2.90
2022-09-22T18:34:51.047Z,3.27
2022-09-22T18:37:18.772Z,3.20
2022-09-22T18:39:46.586Z,3.03
2022-09-22T18:42:14.739Z,3.10
2022-09-22T18:44:44.090Z,2.90
2022-09-22T18:47:16.100Z,3.10
2022-09-22T18:49:44.261Z,3.07
2022-09-22T18:52:12.340Z,2.87
2022-09-22T18:54:43.847Z,3.30
2022-09-22T18:57:13.224Z,2.63
2022-09-22T18:59:41.514Z,3.07
2022-09-22T19:02:12.287Z,3.07
2022-09-22T19:04:40.406Z,3.13
2022-09-22T19:07:28.176Z,2.97
2022-09-22T19:09:56.483Z,2.50
2022-09-22T19:12:24.264Z,2.77
2022-09-22T19:14:54.408Z,3.27
2022-09-22T19:17:24.687Z,2.80
2022-09-22T19:19:52.710Z,3.23
2022-09-22T19:22:22.143Z,3.10
2022-09-22T19:24:50.756Z,2.80
2022-09-22T19:27:19.110Z,2.70
2022-09-22T19:29:46.914Z,2.80
2022-09-22T19:32:14.655Z,2.77
2022-09-22T19:34:43.728Z,2.80
2022-09-22T19:37:11.469Z,2.90
2022-09-22T19:39:39.483Z,3.33
2022-09-22T19:42:07.882Z,3.60
2022-09-22T19:44:35.665Z,4.30
2022-09-22T19:47:03.407Z,3.77
2022-09-22T19:49:31.272Z,6.20
2022-09-22T19:52:00.365Z,3.50
2022-09-22T19:54:28.130Z,3.77
2022-09-22T19:56:55.854Z,2.90
2022-09-22T19:59:23.614Z,3.10
2022-09-22T20:01:51.414Z,3.43
2022-09-22T20:04:20.884Z,2.40
2022-09-22T20:06:48.710Z,3.97
2022-09-22T20:09:18.678Z,3.67
2022-09-22T20:11:48.566Z,2.87
2022-09-22T20:14:23.739Z,3.30
2022-09-22T20:16:53.419Z,3.27
2022-09-22T20:19:22.684Z,3.33
2022-09-22T20:21:53.107Z,3.27
2022-09-22T20:24:23.699Z,2.90
2022-09-22T20:26:51.496Z,3.47
2022-09-22T20:29:20.694Z,3.57
2022-09-22T20:31:48.449Z,3.57
2022-09-22T20:34:16.536Z,3.00
2022-09-22T20:36:44.530Z,3.50
2022-09-22T20:39:14.879Z,3.73
2022-09-22T20:41:44.417Z,3.87
2022-09-22T20:44:14.727Z,3.20
2022-09-22T20:46:43.302Z,3.50
2022-09-22T20:49:13.309Z,2.80
2022-09-22T20:51:41.129Z,2.83
2022-09-22T20:54:09.133Z,3.10
2022-09-22T20:56:40.799Z,3.33
2022-09-22T20:59:11.814Z,3.40
2022-09-22T21:01:39.606Z,3.90
2022-09-22T21:04:07.667Z,3.60
2022-09-22T21:06:35.443Z,3.13
2022-09-22T21:09:20.813Z,3.13
2022-09-22T21:11:48.575Z,3.57
2022-09-22T21:14:17.826Z,3.57
2022-09-22T21:16:45.605Z,3.90
2022-09-22T21:19:13.360Z,3.57
2022-09-22T21:21:41.738Z,3.70
2022-09-22T21:24:11.008Z,3.50
2022-09-22T21:26:38.832Z,3.90
2022-09-22T21:29:06.676Z,3.73
2022-09-22T21:31:37.203Z,3.57
2022-09-22T21:34:05.066Z,3.20
2022-09-22T21:36:32.859Z,2.80
2022-09-22T21:39:01.399Z,3.23
2022-09-22T21:41:31.176Z,3.07
2022-09-22T21:43:59.935Z,3.20
2022-09-22T21:46:29.517Z,3.30
2022-09-22T21:49:01.372Z,3.70
2022-09-22T21:51:31.042Z,2.90
2022-09-22T21:53:58.802Z,3.37
2022-09-22T21:56:26.979Z,3.63
2022-09-22T21:58:55.867Z,3.10
2022-09-22T22:01:25.407Z,3.03
2022-09-22T22:03:55.464Z,3.40
2022-09-22T22:06:27.447Z,3.20
2022-09-22T22:09:02.232Z,2.80
2022-09-22T22:11:32.664Z,3.37
2022-09-22T22:14:01.909Z,3.60
2022-09-22T22:16:32.986Z,4.13
2022-09-22T22:19:01.138Z,3.60
2022-09-22T22:21:31.910Z,3.50
2022-09-22T22:24:21.876Z,3.37
2022-09-22T22:26:51.754Z,3.40
2022-09-22T22:29:20.950Z,3.13
2022-09-22T22:31:49.896Z,3.17
2022-09-22T22:34:19.277Z,3.43
2022-09-22T22:36:49.272Z,3.80
2022-09-22T22:39:17.339Z,3.73
2022-09-22T22:41:45.458Z,3.70
2022-09-22T22:44:13.297Z,3.60
2022-09-22T22:46:41.076Z,3.87
2022-09-22T22:49:08.979Z,3.70
2022-09-22T22:51:36.785Z,3.77
2022-09-22T22:54:06.746Z,4.03
2022-09-22T22:56:34.684Z,3.30
2022-09-22T22:59:02.481Z,3.40
2022-09-22T23:01:33.044Z,3.70
2022-09-22T23:04:03.075Z,3.57
2022-09-22T23:06:34.063Z,3.60
2022-09-22T23:09:02.309Z,3.80
2022-09-22T23:11:35.577Z,3.47
2022-09-22T23:14:05.439Z,3.27
2022-09-22T23:16:35.435Z,3.40
2022-09-22T23:19:07.624Z,3.70
2022-09-22T23:21:36.661Z,2.90
2022-09-22T23:24:05.686Z,3.60
2022-09-22T23:26:34.758Z,3.90
2022-09-22T23:29:04.150Z,3.10
2022-09-22T23:31:31.985Z,3.40
2022-09-22T23:33:59.857Z,3.13
2022-09-22T23:36:29.817Z,3.30
2022-09-22T23:39:01.862Z,3.17
2022-09-22T23:41:29.954Z,3.20
2022-09-22T23:43:59.034Z,2.90
2022-09-22T23:46:26.932Z,3.03
2022-09-22T23:48:55.463Z,3.13
2022-09-22T23:51:23.901Z,3.30
2022-09-22T23:53:51.848Z,3.50
2022-09-22T23:56:20.186Z,3.10
2022-09-22T23:58:48.120Z,3.33
